Time;durP1;ratioP1;P1;durP2;ratioP2;P2;SDS_P1;SDS_P2;PMS_P1;PMS_P2;Temp;Humidity;BMP_temperature;BMP_pressure;BME280_temperature;BME280_humidity;BME280_pressure;Samples;Min_cycle;Max_cycle;Signal;HPM_P1;HPM_P2
2022/10/20 00:01:57;;;;;;;17.23;8.93;;;8.60;99.90;;;;;;4992827;28;20037;-75
2022/10/20 00:04:23;;;;;;;15.18;8.15;;;8.50;99.90;;;;;;4992531;28;20118;-75
2022/10/20 00:06:49;;;;;;;14.95;7.85;;;8.40;99.90;;;;;;4989924;28;20045;-74
2022/10/20 00:09:15;;;;;;;20.58;9.02;;;8.30;99.90;;;;;;4991535;28;20030;-74
2022/10/20 00:11:42;;;;;;;17.23;8.70;;;8.30;99.90;;;;;;4991277;28;20403;-75
2022/10/20 00:14:09;;;;;;;20.38;8.52;;;8.40;99.90;;;;;;4991117;28;20038;-74
2022/10/20 00:16:37;;;;;;;20.70;8.25;;;8.40;99.90;;;;;;4990501;28;20045;-74
2022/10/20 00:19:04;;;;;;;14.63;8.75;;;8.30;99.90;;;;;;4992814;28;20041;-75
2022/10/20 00:21:31;;;;;;;21.55;8.55;;;8.20;99.90;;;;;;4992200;28;20023;-74
2022/10/20 00:24:01;;;;;;;17.92;8.43;;;8.20;99.90;;;;;;4992015;28;20041;-74
2022/10/20 00:26:29;;;;;;;16.87;8.83;;;8.20;99.90;;;;;;4989781;28;20050;-74
2022/10/20 00:28:56;;;;;;;20.67;9.15;;;8.30;99.90;;;;;;4992173;28;20026;-75
2022/10/20 00:31:23;;;;;;;18.45;10.32;;;8.30;99.90;;;;;;4991048;28;20399;-74
2022/10/20 00:33:50;;;;;;;17.65;8.93;;;8.30;99.90;;;;;;4991621;28;20038;-74
2022/10/20 00:36:19;;;;;;;16.55;9.25;;;8.40;99.90;;;;;;4991006;28;20049;-73
2022/10/20 00:38:45;;;;;;;18.23;10.32;;;8.40;99.90;;;;;;4992336;28;20038;-74
2022/10/20 00:41:15;;;;;;;21.20;10.32;;;8.30;99.90;;;;;;4991238;28;20045;-75
2022/10/20 00:43:51;;;;;;;15.85;9.27;;;8.20;99.90;;;;;;4991733;28;20034;-75
2022/10/20 00:46:23;;;;;;;16.85;9.55;;;8.20;99.90;;;;;;4985291;28;20050;-73
2022/10/20 00:48:55;;;;;;;17.80;9.05;;;8.20;99.90;;;;;;4991490;28;20705;-74
2022/10/20 00:51:26;;;;;;;14.55;8.73;;;8.10;99.90;;;;;;4992501;28;20479;-74
2022/10/20 00:53:58;;;;;;;18.85;8.98;;;8.10;99.90;;;;;;4991395;28;20037;-74
2022/10/20 00:56:25;;;;;;;19.88;8.50;;;8.10;99.90;;;;;;4989935;28;20046;-74
2022/10/20 00:58:51;;;;;;;18.85;10.48;;;8.00;99.90;;;;;;4989967;28;20045;-74
2022/10/20 01:01:17;;;;;;;20.70;8.93;;;8.00;99.90;;;;;;4990697;28;20039;-74
2022/10/20 01:03:49;;;;;;;16.02;9.38;;;8.10;99.90;;;;;;4991249;28;20035;-74
2022/10/20 01:06:19;;;;;;;14.85;8.25;;;8.10;99.90;;;;;;4990555;28;20042;-74
2022/10/20 01:08:46;;;;;;;17.98;8.32;;;8.00;99.90;;;;;;4991150;28;20030;-75
2022/10/20 01:11:32;;;;;;;15.18;8.20;;;7.90;99.90;;;;;;4992088;28;20027;-75
2022/10/20 01:14:10;;;;;;;19.20;9.15;;;7.90;99.90;;;;;;4991876;28;20038;-74
2022/10/20 01:16:52;;;;;;;18.38;7.97;;;7.80;99.90;;;;;;4990281;28;20408;-75
2022/10/20 01:19:29;;;;;;;19.17;8.85;;;7.90;99.90;;;;;;4991990;28;20041;-75
2022/10/20 01:22:13;;;;;;;16.27;9.23;;;7.90;99.90;;;;;;4991145;28;20042;-75
2022/10/20 01:24:54;;;;;;;19.90;9.75;;;8.00;99.90;;;;;;4990119;28;20041;-74
2022/10/20 01:27:24;;;;;;;20.80;10.07;;;8.00;99.90;;;;;;4990622;28;20053;-74
2022/10/20 01:30:14;;;;;;;16.17;9.98;;;7.90;99.90;;;;;;4992785;28;20038;-74
2022/10/20 01:33:01;;;;;;;18.23;9.52;;;7.80;99.90;;;;;;4991046;28;20049;-75
2022/10/20 01:36:08;;;;;;;19.75;9.55;;;7.80;99.90;;;;;;4992297;28;20038;-75
2022/10/20 01:38:41;;;;;;;23.10;9.18;;;7.70;99.90;;;;;;4977687;28;20058;-75
2022/10/20 01:41:20;;;;;;;23.63;10.27;;;7.70;99.90;;;;;;4995493;28;20034;-74
2022/10/20 01:43:48;;;;;;;18.83;9.20;;;7.80;99.90;;;;;;4995031;28;20034;-75
2022/10/20 01:46:18;;;;;;;26.83;9.32;;;7.70;99.90;;;;;;4992707;28;20053;-74
2022/10/20 01:48:46;;;;;;;25.60;10.00;;;7.70;99.90;;;;;;4994224;28;20030;-74
2022/10/20 01:51:12;;;;;;;24.77;9.98;;;7.80;99.90;;;;;;4995154;28;20050;-75
2022/10/20 01:53:38;;;;;;;20.77;10.95;;;7.80;99.90;;;;;;4994616;28;20043;-75
2022/10/20 01:56:11;;;;;;;18.77;9.25;;;7.80;99.90;;;;;;4992905;28;20045;-74
2022/10/20 01:59:04;;;;;;;19.95;9.68;;;7.80;99.90;;;;;;4994229;28;20026;-75
2022/10/20 02:02:15;;;;;;;18.92;9.20;;;7.80;99.90;;;;;;4995291;28;20045;-74
2022/10/20 02:04:47;;;;;;;18.52;8.68;;;7.70;99.90;;;;;;4987022;28;20681;-75
2022/10/20 02:07:26;;;;;;;22.23;10.07;;;7.70;99.90;;;;;;4994888;28;20495;-74
2022/10/20 02:09:59;;;;;;;19.58;10.10;;;7.70;99.90;;;;;;4992458;28;20042;-74
2022/10/20 02:12:31;;;;;;;21.20;10.38;;;7.70;99.90;;;;;;4994868;28;20472;-74
2022/10/20 02:14:58;;;;;;;18.85;9.35;;;7.70;99.90;;;;;;4992595;28;20038;-75
2022/10/20 02:17:25;;;;;;;22.70;10.25;;;7.80;99.90;;;;;;4994634;28;20049;-75
2022/10/20 02:19:52;;;;;;;23.02;10.55;;;7.70;99.90;;;;;;4994835;28;20039;-75
2022/10/20 02:22:20;;;;;;;22.05;9.43;;;7.60;99.90;;;;;;4994534;28;20030;-75
2022/10/20 02:24:47;;;;;;;21.83;10.02;;;7.70;99.90;;;;;;4992455;28;20034;-74
2022/10/20 02:27:20;;;;;;;20.95;10.52;;;7.80;99.90;;;;;;4993401;28;20038;-73
2022/10/20 02:29:53;;;;;;;19.98;9.88;;;7.80;99.90;;;;;;4993795;28;20372;-74
2022/10/20 02:32:21;;;;;;;21.75;9.75;;;7.90;99.90;;;;;;4993589;28;20482;-74
2022/10/20 02:34:47;;;;;;;19.17;9.70;;;7.80;99.90;;;;;;4992387;28;20028;-74
2022/10/20 02:37:14;;;;;;;21.60;9.68;;;7.80;99.90;;;;;;4993438;28;20046;-74
2022/10/20 02:39:40;;;;;;;18.25;9.57;;;7.80;99.90;;;;;;4993808;28;20042;-75
2022/10/20 02:42:06;;;;;;;18.98;9.55;;;7.80;99.90;;;;;;4994246;28;20030;-75
2022/10/20 02:44:33;;;;;;;18.55;9.75;;;7.80;99.90;;;;;;4993320;28;20042;-74
2022/10/20 02:46:59;;;;;;;22.63;10.50;;;7.70;99.90;;;;;;4993317;28;20043;-74
2022/10/20 02:49:26;;;;;;;16.85;9.60;;;7.70;99.90;;;;;;4994072;28;20055;-74
2022/10/20 02:51:52;;;;;;;20.73;10.48;;;7.80;99.90;;;;;;4992137;28;20499;-74
2022/10/20 02:54:18;;;;;;;18.85;9.55;;;7.80;99.90;;;;;;4992804;28;20038;-75
2022/10/20 02:56:44;;;;;;;16.63;10.30;;;7.80;99.90;;;;;;4991757;28;20034;-74
2022/10/20 02:59:15;;;;;;;18.48;10.00;;;7.80;99.90;;;;;;4977089;28;20049;-74
2022/10/20 03:01:42;;;;;;;;;;;7.80;99.90;;;;;;4993734;28;20120;-74
2022/10/20 03:04:08;;;;;;;20.70;9.93;;;7.80;99.90;;;;;;4993499;28;19917;-74
2022/10/20 03:06:36;;;;;;;20.23;11.25;;;7.70;99.90;;;;;;4992974;28;20038;-74
2022/10/20 03:09:03;;;;;;;24.42;13.63;;;7.70;99.90;;;;;;4992058;28;20043;-74
2022/10/20 03:11:30;;;;;;;22.88;11.13;;;7.80;99.90;;;;;;4994520;28;20030;-74
2022/10/20 03:13:56;;;;;;;22.83;10.43;;;7.70;99.90;;;;;;4992812;28;20034;-74
2022/10/20 03:16:22;;;;;;;25.33;10.30;;;7.70;99.90;;;;;;4992247;28;20050;-74
2022/10/20 03:18:49;;;;;;;20.60;11.18;;;7.70;99.90;;;;;;4993167;28;20365;-74
2022/10/20 03:21:15;;;;;;;18.85;10.57;;;7.70;99.90;;;;;;4992508;28;20393;-74
2022/10/20 03:23:41;;;;;;;21.13;10.63;;;7.60;99.90;;;;;;4991513;28;20042;-75
2022/10/20 03:26:10;;;;;;;24.55;11.55;;;7.70;99.90;;;;;;4992520;28;20030;-74
2022/10/20 03:28:37;;;;;;;19.98;11.40;;;7.70;99.90;;;;;;4994292;28;20034;-74
2022/10/20 03:31:03;;;;;;;24.75;12.70;;;7.70;99.90;;;;;;4993086;28;20034;-74
2022/10/20 03:33:29;;;;;;;21.00;11.70;;;7.70;99.90;;;;;;4993291;28;20033;-74
2022/10/20 03:35:56;;;;;;;22.25;12.73;;;7.70;99.90;;;;;;4990908;28;20453;-75
2022/10/20 03:38:22;;;;;;;24.45;12.57;;;7.60;99.90;;;;;;4993527;28;20045;-73
2022/10/20 03:40:48;;;;;;;23.10;13.10;;;7.70;99.90;;;;;;4992770;28;20038;-74
2022/10/20 03:43:14;;;;;;;23.02;12.52;;;7.70;99.90;;;;;;4993430;28;20034;-75
2022/10/20 03:45:42;;;;;;;22.55;14.25;;;7.70;99.90;;;;;;4986733;28;20042;-75
2022/10/20 03:48:09;;;;;;;23.48;12.40;;;7.70;99.90;;;;;;5013704;28;20037;-74
2022/10/20 03:50:37;;;;;;;25.85;11.57;;;7.70;99.90;;;;;;5017553;28;20137;-75
2022/10/20 03:53:04;;;;;;;25.00;12.30;;;7.70;99.90;;;;;;4996672;28;20098;-75
2022/10/20 03:55:30;;;;;;;19.77;10.88;;;7.60;99.90;;;;;;4990669;28;20042;-74
2022/10/20 03:57:56;;;;;;;20.90;10.60;;;7.60;99.90;;;;;;4990616;28;20046;-72
2022/10/20 04:00:23;;;;;;;25.48;11.85;;;7.70;99.90;;;;;;4991764;28;20053;-74
2022/10/20 04:02:50;;;;;;;24.80;12.85;;;7.70;99.90;;;;;;4991967;28;20033;-73
2022/10/20 04:05:18;;;;;;;24.13;12.18;;;7.70;99.90;;;;;;4984771;28;20034;-73
2022/10/20 04:07:44;;;;;;;26.58;12.95;;;7.70;99.90;;;;;;4985777;28;20395;-74
2022/10/20 04:10:11;;;;;;;26.63;12.63;;;7.80;99.90;;;;;;4992779;28;20030;-72
2022/10/20 04:12:37;;;;;;;26.10;13.25;;;7.80;99.90;;;;;;4992440;28;20106;-73
2022/10/20 04:15:05;;;;;;;28.17;14.05;;;7.80;99.90;;;;;;4988971;28;20050;-72
2022/10/20 04:17:31;;;;;;;30.95;16.83;;;7.90;99.90;;;;;;4990362;28;20057;-72
2022/10/20 04:19:57;;;;;;;30.25;14.82;;;8.00;99.90;;;;;;4989805;28;20091;-72
2022/10/20 04:22:24;;;;;;;34.55;16.95;;;8.00;99.90;;;;;;4992366;28;20063;-73
2022/10/20 04:24:50;;;;;;;32.65;16.33;;;8.00;99.90;;;;;;4989572;28;20034;-73
2022/10/20 04:27:16;;;;;;;37.28;16.95;;;8.10;99.90;;;;;;4991714;28;20038;-74
2022/10/20 04:29:42;;;;;;;31.60;17.52;;;8.00;99.90;;;;;;4987445;28;20391;-75
2022/10/20 04:32:08;;;;;;;33.92;17.08;;;8.00;99.90;;;;;;4992002;28;20039;-73
2022/10/20 04:34:35;;;;;;;34.42;15.68;;;8.00;99.90;;;;;;4986842;28;20073;-73
2022/10/20 04:37:01;;;;;;;32.45;15.80;;;8.00;99.90;;;;;;4981887;28;20045;-74
2022/10/20 04:39:27;;;;;;;28.77;14.23;;;8.00;99.90;;;;;;4992057;28;20383;-73
2022/10/20 04:41:53;;;;;;;41.28;17.85;;;8.00;99.90;;;;;;4991309;28;20027;-74
2022/10/20 04:44:20;;;;;;;26.42;13.82;;;8.00;99.90;;;;;;4992223;28;20045;-73
2022/10/20 04:46:46;;;;;;;23.45;13.55;;;8.00;99.90;;;;;;4990633;28;20042;-74
2022/10/20 04:49:13;;;;;;;35.05;15.80;;;8.00;99.90;;;;;;4991574;28;20385;-73
2022/10/20 04:51:39;;;;;;;26.35;13.35;;;8.10;99.90;;;;;;4992345;28;20499;-73
2022/10/20 04:54:06;;;;;;;28.30;14.23;;;8.10;99.90;;;;;;4991744;28;20061;-73
2022/10/20 04:56:32;;;;;;;25.98;15.18;;;8.10;99.90;;;;;;4990777;28;20034;-73
2022/10/20 04:58:58;;;;;;;25.73;14.73;;;8.10;99.90;;;;;;4990198;28;20031;-72
2022/10/20 05:01:27;;;;;;;28.58;14.48;;;8.10;99.90;;;;;;4990650;28;20050;-74
2022/10/20 05:03:54;;;;;;;31.65;15.88;;;8.10;99.90;;;;;;4991200;28;20029;-73
2022/10/20 05:06:25;;;;;;;28.23;15.43;;;8.10;99.90;;;;;;4992111;28;20038;-73
2022/10/20 05:08:54;;;;;;;27.40;15.38;;;8.20;99.90;;;;;;4983342;28;20407;-74
2022/10/20 05:11:23;;;;;;;28.27;14.98;;;8.20;99.90;;;;;;4995060;28;20031;-74
2022/10/20 05:13:49;;;;;;;28.05;16.95;;;8.30;99.90;;;;;;4994849;28;20034;-73
2022/10/20 05:16:16;;;;;;;28.10;14.93;;;8.30;99.90;;;;;;4995846;28;20030;-73
2022/10/20 05:18:43;;;;;;;31.60;14.13;;;8.30;99.90;;;;;;4987838;28;20038;-76
2022/10/20 05:21:14;;;;;;;27.98;13.57;;;8.20;99.90;;;;;;4995856;28;20037;-72
2022/10/20 05:23:41;;;;;;;29.70;16.00;;;8.10;99.90;;;;;;4995891;28;20034;-73
2022/10/20 05:26:10;;;;;;;22.90;13.57;;;8.10;99.90;;;;;;4993839;28;20043;-73
2022/10/20 05:28:37;;;;;;;25.38;13.27;;;8.10;99.90;;;;;;4988031;28;20512;-74
2022/10/20 05:31:06;;;;;;;24.55;13.48;;;8.00;99.90;;;;;;4995023;28;20599;-74
2022/10/20 05:33:33;;;;;;;24.77;14.13;;;8.10;99.90;;;;;;4995798;28;20382;-74
2022/10/20 05:36:05;;;;;;;34.65;16.40;;;8.10;99.90;;;;;;4994142;28;20046;-74
2022/10/20 05:38:31;;;;;;;29.77;15.32;;;8.10;99.90;;;;;;4986613;28;20057;-74
2022/10/20 05:41:11;;;;;;;28.50;15.88;;;8.10;99.90;;;;;;4995067;28;20035;-73
2022/10/20 05:43:37;;;;;;;33.58;14.38;;;8.10;99.90;;;;;;4995078;28;20054;-74
2022/10/20 05:46:04;;;;;;;37.90;16.23;;;8.10;99.90;;;;;;4993106;28;20042;-74
2022/10/20 05:48:31;;;;;;;34.50;15.50;;;8.10;99.90;;;;;;4993911;28;20046;-73
2022/10/20 05:51:19;;;;;;;29.17;15.95;;;8.10;99.90;;;;;;4994399;28;20527;-73
2022/10/20 05:53:45;;;;;;;25.35;15.35;;;8.10;99.90;;;;;;4991297;28;20134;-77
2022/10/20 05:56:14;;;;;;;35.83;18.15;;;8.00;99.90;;;;;;4995191;28;20041;-73
2022/10/20 05:58:41;;;;;;;31.35;15.70;;;8.10;99.90;;;;;;4991821;28;20058;-73
2022/10/20 06:01:18;;;;;;;27.48;15.63;;;8.10;99.90;;;;;;4992956;28;20023;-74
2022/10/20 06:03:54;;;;;;;33.60;15.50;;;8.10;99.90;;;;;;4990767;28;20034;-78
2022/10/20 06:06:23;;;;;;;26.08;14.35;;;8.00;99.90;;;;;;4992890;28;20034;-73
2022/10/20 06:08:49;;;;;;;27.73;14.80;;;8.00;99.90;;;;;;4987107;28;20034;-75
2022/10/20 06:11:17;;;;;;;26.85;14.23;;;8.10;99.90;;;;;;4993371;28;20030;-73
2022/10/20 06:13:43;;;;;;;27.63;14.40;;;8.10;99.90;;;;;;4992241;28;20064;-74
2022/10/20 06:16:12;;;;;;;26.10;14.85;;;8.10;99.90;;;;;;4992263;28;20022;-74
2022/10/20 06:18:39;;;;;;;27.92;15.18;;;8.10;99.90;;;;;;4993833;28;20037;-74
2022/10/20 06:21:08;;;;;;;26.92;15.07;;;8.10;99.90;;;;;;4995537;28;20311;-74
2022/10/20 06:23:34;;;;;;;28.42;15.23;;;8.20;99.90;;;;;;4995599;28;20464;-74
2022/10/20 06:26:03;;;;;;;26.98;14.73;;;8.20;99.90;;;;;;4995730;28;20045;-74
2022/10/20 06:28:30;;;;;;;29.63;15.80;;;8.30;99.90;;;;;;4996455;28;20046;-73
2022/10/20 06:30:57;;;;;;;38.08;16.95;;;8.40;99.90;;;;;;4994995;28;20042;-73
2022/10/20 06:33:24;;;;;;;32.25;16.05;;;8.40;99.90;;;;;;4995610;28;20030;-75
2022/10/20 06:35:50;;;;;;;29.27;16.38;;;8.50;99.90;;;;;;4994104;28;20042;-73
2022/10/20 06:38:16;;;;;;;31.17;16.73;;;8.60;99.90;;;;;;4993496;28;20041;-74
2022/10/20 06:40:42;;;;;;;30.33;16.75;;;8.70;99.90;;;;;;4995086;28;20503;-73
2022/10/20 06:43:08;;;;;;;25.13;15.10;;;8.80;99.90;;;;;;4994150;28;20038;-73
2022/10/20 06:45:35;;;;;;;26.75;15.73;;;8.90;99.90;;;;;;4994670;28;20054;-74
2022/10/20 06:48:01;;;;;;;23.80;14.30;;;9.00;99.90;;;;;;4992440;28;20054;-74
2022/10/20 06:50:27;;;;;;;26.48;15.65;;;9.10;99.90;;;;;;4995252;28;20046;-73
2022/10/20 06:52:53;;;;;;;25.75;13.95;;;9.20;99.90;;;;;;4993814;28;20037;-73
2022/10/20 06:55:19;;;;;;;24.83;13.05;;;9.30;99.90;;;;;;4994639;28;20034;-73
2022/10/20 06:57:48;;;;;;;20.02;13.10;;;9.30;99.90;;;;;;4992808;28;20061;-73
2022/10/20 07:00:15;;;;;;;20.20;12.82;;;9.50;99.90;;;;;;4994210;28;20042;-73
2022/10/20 07:02:41;;;;;;;21.48;12.77;;;9.60;99.90;;;;;;4994583;28;20042;-73
2022/10/20 07:05:07;;;;;;;17.80;11.20;;;9.70;99.90;;;;;;4993197;28;20046;-74
2022/10/20 07:07:33;;;;;;;20.63;11.35;;;9.80;99.90;;;;;;4992924;28;20065;-74
2022/10/20 07:10:00;;;;;;;19.60;11.52;;;9.90;99.90;;;;;;4993612;28;20035;-74
2022/10/20 07:12:26;;;;;;;15.88;10.93;;;10.00;99.90;;;;;;4994007;28;20027;-74
2022/10/20 07:14:52;;;;;;;17.45;10.45;;;10.00;99.90;;;;;;4993833;28;20388;-73
2022/10/20 07:17:18;;;;;;;14.23;9.93;;;10.10;99.90;;;;;;4992555;28;20042;-74
2022/10/20 07:19:44;;;;;;;17.85;11.20;;;10.20;99.90;;;;;;4994109;28;20034;-72
2022/10/20 07:22:10;;;;;;;13.68;10.05;;;10.30;99.90;;;;;;4992437;28;20026;-74
2022/10/20 07:24:37;;;;;;;16.25;10.02;;;10.30;99.90;;;;;;4992916;28;20042;-74
2022/10/20 07:27:03;;;;;;;15.05;8.02;;;10.40;99.90;;;;;;4992116;28;20026;-73
2022/10/20 07:29:29;;;;;;;13.90;9.32;;;10.40;99.90;;;;;;4993777;28;20039;-73
2022/10/20 07:31:55;;;;;;;16.42;9.43;;;10.50;99.90;;;;;;4992654;28;20042;-74
2022/10/20 07:34:22;;;;;;;14.57;9.10;;;10.40;99.90;;;;;;4993428;28;20034;-72
2022/10/20 07:36:48;;;;;;;14.20;8.75;;;10.40;99.90;;;;;;4992496;28;20027;-74
2022/10/20 07:39:15;;;;;;;15.23;9.52;;;10.30;99.90;;;;;;4992570;28;20034;-72
2022/10/20 07:41:44;;;;;;;13.55;8.65;;;10.30;99.90;;;;;;4993602;28;20034;-74
2022/10/20 07:44:10;;;;;;;19.10;10.45;;;10.40;99.90;;;;;;4993255;28;20039;-74
2022/10/20 07:46:36;;;;;;;15.55;10.02;;;10.40;99.90;;;;;;4993518;28;20026;-72
2022/10/20 07:49:03;;;;;;;11.82;9.25;;;10.40;99.90;;;;;;4991293;28;20050;-73
2022/10/20 07:51:31;;;;;;;17.40;10.95;;;10.40;99.90;;;;;;4991491;28;20038;-74
2022/10/20 07:54:03;;;;;;;16.20;11.45;;;10.40;99.90;;;;;;4992833;28;20035;-74
2022/10/20 07:56:38;;;;;;;17.60;11.02;;;10.50;99.90;;;;;;4998469;28;20030;-73
2022/10/20 07:59:06;;;;;;;17.20;10.07;;;10.60;99.90;;;;;;4991844;28;20030;-73
2022/10/20 08:01:33;;;;;;;15.48;9.00;;;10.80;99.90;;;;;;4993651;28;20031;-73
2022/10/20 08:03:59;;;;;;;14.27;8.88;;;10.80;99.90;;;;;;5004669;28;20046;-76
2022/10/20 08:06:25;;;;;;;16.08;9.77;;;10.80;99.90;;;;;;5013202;28;20031;-75
2022/10/20 08:08:52;;;;;;;15.07;9.93;;;10.90;99.90;;;;;;4998298;28;20038;-73
2022/10/20 08:11:19;;;;;;;13.15;8.80;;;11.00;99.90;;;;;;4992928;28;20045;-73
2022/10/20 08:13:45;;;;;;;13.70;8.50;;;11.00;99.90;;;;;;4993173;28;20042;-74
2022/10/20 08:16:13;;;;;;;13.45;8.60;;;11.10;99.90;;;;;;4992490;28;20039;-74
2022/10/20 08:18:41;;;;;;;18.27;9.32;;;11.20;99.90;;;;;;4991425;28;20034;-72
2022/10/20 08:21:18;;;;;;;13.77;8.98;;;11.40;99.90;;;;;;4992451;28;20041;-73
2022/10/20 08:23:46;;;;;;;17.48;9.18;;;11.40;99.90;;;;;;4992705;28;20057;-73
2022/10/20 08:26:17;;;;;;;17.98;10.10;;;11.60;99.90;;;;;;4991858;28;20408;-73
2022/10/20 08:28:44;;;;;;;19.33;10.77;;;11.60;99.90;;;;;;4990964;28;20054;-73
2022/10/20 08:31:10;;;;;;;15.23;9.32;;;11.80;99.90;;;;;;4992109;28;20038;-73
2022/10/20 08:33:36;;;;;;;12.70;9.55;;;12.00;99.90;;;;;;4992881;28;20026;-74
2022/10/20 08:36:08;;;;;;;15.95;9.40;;;12.00;99.90;;;;;;4992166;28;20038;-72
2022/10/20 08:38:35;;;;;;;12.00;7.43;;;12.10;99.90;;;;;;4990950;28;20038;-73
2022/10/20 08:41:03;;;;;;;11.55;7.45;;;12.40;99.90;;;;;;4992034;28;20039;-73
2022/10/20 08:43:32;;;;;;;15.65;9.38;;;12.30;99.90;;;;;;4992053;28;20026;-73
2022/10/20 08:45:58;;;;;;;8.98;7.07;;;12.50;99.90;;;;;;4992150;28;20061;-73
2022/10/20 08:48:28;;;;;;;14.27;7.95;;;12.80;99.90;;;;;;4990889;28;20038;-73
2022/10/20 08:50:54;;;;;;;11.43;7.90;;;12.80;99.90;;;;;;4992181;28;20049;-72
2022/10/20 08:53:23;;;;;;;12.18;7.60;;;13.20;99.90;;;;;;4992503;28;20037;-72
2022/10/20 08:55:53;;;;;;;14.77;8.25;;;13.20;99.90;;;;;;4991636;28;20480;-71
2022/10/20 08:58:23;;;;;;;11.98;8.02;;;13.10;99.90;;;;;;4990736;28;20042;-73
2022/10/20 09:00:57;;;;;;;17.63;9.48;;;13.10;99.90;;;;;;4992278;28;20041;-73
2022/10/20 09:03:28;;;;;;;12.23;7.38;;;13.30;99.90;;;;;;4992401;28;20030;-71
2022/10/20 09:06:13;;;;;;;11.68;8.07;;;13.50;99.90;;;;;;4991791;28;20039;-73
2022/10/20 09:08:41;;;;;;;11.07;6.88;;;13.90;99.90;;;;;;4986082;28;20472;-72
2022/10/20 09:11:12;;;;;;;14.80;8.27;;;13.90;99.90;;;;;;4991411;28;20042;-73
2022/10/20 09:13:39;;;;;;;10.05;7.18;;;14.00;99.90;;;;;;4992443;28;20042;-73
2022/10/20 09:16:12;;;;;;;13.23;7.78;;;14.20;99.90;;;;;;4991503;28;20031;-72
2022/10/20 09:18:39;;;;;;;12.00;7.43;;;14.10;99.90;;;;;;4990712;28;20038;-72
2022/10/20 09:21:20;;;;;;;12.48;8.40;;;14.20;99.90;;;;;;4990301;28;20471;-73
2022/10/20 09:23:55;;;;;;;15.25;8.52;;;14.00;99.90;;;;;;4990760;28;20049;-72
2022/10/20 09:26:29;;;;;;;21.70;14.95;;;13.80;99.90;;;;;;4992036;28;20038;-73
2022/10/20 09:29:33;;;;;;;13.45;9.63;;;13.60;99.90;;;;;;4990036;28;20053;-75
2022/10/20 09:31:59;;;;;;;12.13;9.43;;;13.40;99.90;;;;;;4988424;28;20041;-72
2022/10/20 09:34:30;;;;;;;13.63;8.95;;;13.40;99.90;;;;;;4991952;28;20038;-73
2022/10/20 09:37:18;;;;;;;13.55;8.80;;;13.40;99.90;;;;;;4989895;28;20388;-73
2022/10/20 09:39:55;;;;;;;18.75;9.23;;;13.80;99.90;;;;;;4992010;28;20038;-73
2022/10/20 09:42:28;;;;;;;14.32;9.60;;;14.00;99.90;;;;;;4992600;28;20034;-74
2022/10/20 09:45:11;;;;;;;13.63;8.77;;;14.10;99.90;;;;;;4986148;28;20046;-73
2022/10/20 09:47:43;;;;;;;13.18;8.77;;;14.20;99.90;;;;;;4990696;28;20045;-72
2022/10/20 09:50:34;;;;;;;18.73;9.95;;;14.00;99.90;;;;;;4991641;28;20054;-72
2022/10/20 09:53:04;;;;;;;13.23;9.40;;;14.20;99.90;;;;;;4991241;28;20396;-72
2022/10/20 09:55:40;;;;;;;13.65;9.57;;;14.50;99.90;;;;;;4992351;28;20030;-72
2022/10/20 09:58:26;;;;;;;13.77;9.75;;;14.60;99.90;;;;;;4973421;28;20043;-73
2022/10/20 10:01:04;;;;;;;11.65;8.45;;;14.90;99.90;;;;;;4994775;28;20066;-77
2022/10/20 10:03:39;;;;;;;13.60;8.95;;;14.80;99.90;;;;;;4995227;28;20038;-73
2022/10/20 10:06:27;;;;;;;18.60;9.18;;;14.90;99.90;;;;;;4994669;28;20037;-73
2022/10/20 10:08:54;;;;;;;15.02;9.20;;;14.80;99.90;;;;;;4988090;28;20046;-74
2022/10/20 10:11:25;;;;;;;18.17;11.00;;;14.90;99.90;;;;;;4995124;28;20030;-73
2022/10/20 10:13:52;;;;;;;15.75;10.55;;;14.80;99.90;;;;;;4994182;28;20046;-73
2022/10/20 10:16:21;;;;;;;15.23;10.20;;;14.70;99.90;;;;;;4995247;28;20037;-73
2022/10/20 10:19:01;;;;;;;19.15;10.65;;;14.60;99.90;;;;;;4993455;28;20050;-73
2022/10/20 10:21:53;;;;;;;19.58;11.40;;;14.70;99.90;;;;;;4994072;28;20042;-74
2022/10/20 10:24:41;;;;;;;15.40;10.43;;;14.60;99.90;;;;;;4982094;28;20468;-72
2022/10/20 10:27:26;;;;;;;15.25;10.40;;;14.50;99.90;;;;;;4993184;28;20042;-74
2022/10/20 10:29:55;;;;;;;21.23;10.00;;;14.90;99.90;;;;;;4994876;28;20049;-73
2022/10/20 10:32:28;;;;;;;17.95;10.95;;;15.40;99.90;;;;;;4995075;28;20121;-72
2022/10/20 10:35:06;;;;;;;14.70;9.65;;;15.50;99.90;;;;;;4994172;28;20388;-74
2022/10/20 10:37:34;;;;;;;15.93;8.90;;;15.50;99.90;;;;;;4992826;28;20049;-72
2022/10/20 10:40:12;;;;;;;14.95;9.57;;;15.70;99.90;;;;;;4994070;28;20038;-73
2022/10/20 10:43:14;;;;;;;13.50;9.45;;;15.80;99.90;;;;;;4988866;28;20061;-73
2022/10/20 10:45:55;;;;;;;15.63;10.15;;;15.70;99.90;;;;;;4928456;28;20069;-73
2022/10/20 10:48:27;;;;;;;;;;;15.90;99.90;;;;;;4993844;28;20057;-73
2022/10/20 10:50:58;;;;;;;13.52;9.73;;;15.70;99.90;;;;;;4994835;28;20263;-73
2022/10/20 10:54:11;;;;;;;15.23;9.85;;;15.70;99.90;;;;;;4988423;28;20486;-72
2022/10/20 10:56:50;;;;;;;14.38;9.40;;;15.90;99.90;;;;;;4993112;28;20031;-74
2022/10/20 10:59:26;;;;;;;14.38;9.75;;;15.80;99.90;;;;;;4993827;28;20035;-74
2022/10/20 11:02:16;;;;;;;17.13;10.13;;;16.00;99.90;;;;;;4994271;28;20041;-72
2022/10/20 11:04:57;;;;;;;13.63;9.25;;;16.30;99.90;;;;;;4995041;28;20038;-72
2022/10/20 11:07:44;;;;;;;14.18;8.98;;;16.80;99.90;;;;;;4991661;28;20046;-72
2022/10/20 11:10:14;;;;;;;18.73;9.98;;;16.80;99.90;;;;;;4993683;28;20043;-73
2022/10/20 11:12:58;;;;;;;15.00;9.93;;;16.80;99.90;;;;;;4993015;28;20034;-73
2022/10/20 11:15:43;;;;;;;13.88;9.10;;;16.60;99.90;;;;;;4993904;28;20034;-71
2022/10/20 11:18:29;;;;;;;12.57;8.60;;;16.60;99.90;;;;;;4992022;28;20388;-72
2022/10/20 11:21:04;;;;;;;15.35;9.23;;;16.60;99.90;;;;;;4989663;28;20046;-78
2022/10/20 11:23:57;;;;;;;14.70;9.45;;;16.40;99.90;;;;;;4993872;28;20042;-72
2022/10/20 11:26:38;;;;;;;14.32;9.05;;;16.40;99.90;;;;;;4993565;28;20049;-73
2022/10/20 11:29:09;;;;;;;15.82;9.55;;;16.30;99.90;;;;;;4992983;28;20065;-74
2022/10/20 11:31:53;;;;;;;13.82;9.30;;;16.20;99.90;;;;;;4994007;28;20034;-72
2022/10/20 11:34:37;;;;;;;14.95;9.70;;;16.20;99.90;;;;;;4993129;28;20034;-73
2022/10/20 11:37:16;;;;;;;17.30;11.10;;;16.00;99.90;;;;;;4991988;28;20156;-73
2022/10/20 11:40:03;;;;;;;14.02;9.63;;;15.80;99.90;;;;;;4993733;28;20417;-73
2022/10/20 11:42:40;;;;;;;13.80;9.95;;;15.80;99.90;;;;;;4989878;28;20464;-72
2022/10/20 11:45:27;;;;;;;15.05;10.13;;;15.80;99.90;;;;;;4992128;28;20057;-74
2022/10/20 11:48:01;;;;;;;14.73;9.13;;;15.80;99.90;;;;;;4992045;28;20026;-72
2022/10/20 11:50:28;;;;;;;15.82;9.20;;;15.80;99.90;;;;;;4993703;28;20058;-73
2022/10/20 11:53:13;;;;;;;12.85;8.45;;;15.90;99.90;;;;;;4987223;28;20046;-72
2022/10/20 11:55:51;;;;;;;15.82;7.32;;;15.90;99.90;;;;;;4993199;28;20061;-73
2022/10/20 11:58:31;;;;;;;10.93;6.90;;;15.80;99.90;;;;;;4991419;28;20279;-72
2022/10/20 12:01:24;;;;;;;10.80;5.47;;;15.90;99.90;;;;;;4992971;28;20041;-76
2022/10/20 12:04:11;;;;;;;9.18;5.95;;;15.90;99.90;;;;;;4993220;28;20046;-73
2022/10/20 12:07:19;;;;;;;12.00;5.80;;;15.90;99.90;;;;;;4991664;28;20115;-74
2022/10/20 12:09:51;;;;;;;8.20;5.63;;;15.80;99.90;;;;;;4991666;28;20046;-73
2022/10/20 12:12:40;;;;;;;21.00;6.30;;;15.80;99.90;;;;;;4992674;28;20057;-72
2022/10/20 12:15:26;;;;;;;10.50;6.15;;;15.70;99.90;;;;;;4994767;28;20050;-73
2022/10/20 12:17:56;;;;;;;8.38;6.00;;;15.80;99.90;;;;;;4986296;28;20483;-73
2022/10/20 12:20:22;;;;;;;9.45;5.93;;;15.80;99.90;;;;;;5011457;28;20022;-74
2022/10/20 12:22:51;;;;;;;7.78;5.10;;;15.90;99.90;;;;;;5016943;28;20038;-74
2022/10/20 12:25:24;;;;;;;9.23;5.18;;;15.90;99.90;;;;;;4999073;28;20026;-73
2022/10/20 12:28:21;;;;;;;9.25;6.22;;;15.90;99.90;;;;;;4991610;28;20038;-73
2022/10/20 12:30:58;;;;;;;9.38;6.00;;;15.90;99.90;;;;;;4992090;28;20514;-72
2022/10/20 12:34:00;;;;;;;7.80;6.00;;;15.90;99.90;;;;;;4985852;28;20051;-73
2022/10/20 12:36:32;;;;;;;7.47;5.40;;;15.90;99.90;;;;;;4950643;28;20038;-72
2022/10/20 12:39:10;;;;;;;9.13;5.65;;;15.80;99.90;;;;;;4992474;28;20038;-73
2022/10/20 12:41:43;;;;;;;11.23;5.60;;;15.80;99.90;;;;;;4992374;28;20034;-72
2022/10/20 12:44:16;;;;;;;9.40;6.18;;;15.70;99.90;;;;;;4985802;28;20039;-72
2022/10/20 12:46:52;;;;;;;8.20;5.88;;;15.80;99.90;;;;;;5004877;28;20057;-72
2022/10/20 12:49:27;;;;;;;10.00;5.85;;;15.80;99.90;;;;;;4991563;28;20162;-73
2022/10/20 12:51:55;;;;;;;11.90;6.35;;;15.80;99.90;;;;;;4992671;28;20047;-72
2022/10/20 12:54:21;;;;;;;8.20;5.57;;;15.80;99.90;;;;;;4992090;28;20047;-73
2022/10/20 12:56:49;;;;;;;9.30;5.90;;;15.80;99.90;;;;;;4990710;28;20455;-73
2022/10/20 12:59:34;;;;;;;12.70;6.53;;;15.90;99.90;;;;;;4991751;28;20387;-73
2022/10/20 13:02:09;;;;;;;9.07;6.85;;;15.90;99.90;;;;;;4992321;28;20061;-73